sensor_id;sensor_type;location;lat;lon;timestamp;P1;durP1;ratioP1;P2;durP2;ratioP2
19812;SDS011;10066;48.108;11.448;2022-09-29T00:02:09;2.27;;;1.50;;
19812;SDS011;10066;48.108;11.448;2022-09-29T00:04:36;2.73;;;1.40;;
19812;SDS011;10066;48.108;11.448;2022-09-29T00:07:03;1.53;;;1.40;;
19812;SDS011;10066;48.108;11.448;2022-09-29T00:09:31;3.40;;;1.67;;
19812;SDS011;10066;48.108;11.448;2022-09-29T00:11:59;2.23;;;1.23;;
19812;SDS011;10066;48.108;11.448;2022-09-29T00:14:26;1.90;;;1.33;;
19812;SDS011;10066;48.108;11.448;2022-09-29T00:16:53;2.23;;;1.30;;
19812;SDS011;10066;48.108;11.448;2022-09-29T00:19:20;2.20;;;1.70;;
19812;SDS011;10066;48.108;11.448;2022-09-29T00:21:47;1.70;;;1.20;;
19812;SDS011;10066;48.108;11.448;2022-09-29T00:24:14;1.73;;;1.30;;
19812;SDS011;10066;48.108;11.448;2022-09-29T00:26:42;2.20;;;1.40;;
19812;SDS011;10066;48.108;11.448;2022-09-29T00:29:10;3.10;;;1.40;;
19812;SDS011;10066;48.108;11.448;2022-09-29T00:31:37;3.23;;;1.20;;
19812;SDS011;10066;48.108;11.448;2022-09-29T00:34:05;2.47;;;1.10;;
19812;SDS011;10066;48.108;11.448;2022-09-29T00:36:31;3.83;;;1.40;;
19812;SDS011;10066;48.108;11.448;2022-09-29T00:38:59;1.60;;;1.30;;
19812;SDS011;10066;48.108;11.448;2022-09-29T00:41:26;1.83;;;1.40;;
19812;SDS011;10066;48.108;11.448;2022-09-29T00:43:57;1.30;;;1.20;;
19812;SDS011;10066;48.108;11.448;2022-09-29T00:46:33;1.33;;;1.23;;
19812;SDS011;10066;48.108;11.448;2022-09-29T00:49:04;2.47;;;1.40;;
19812;SDS011;10066;48.108;11.448;2022-09-29T00:51:37;1.57;;;1.40;;
19812;SDS011;10066;48.108;11.448;2022-09-29T00:54:07;2.50;;;1.30;;
19812;SDS011;10066;48.108;11.448;2022-09-29T00:56:34;2.93;;;1.50;;
19812;SDS011;10066;48.108;11.448;2022-09-29T00:59:08;2.80;;;1.33;;
19812;SDS011;10066;48.108;11.448;2022-09-29T01:01:39;1.97;;;1.63;;
19812;SDS011;10066;48.108;11.448;2022-09-29T01:04:08;2.27;;;1.27;;
19812;SDS011;10066;48.108;11.448;2022-09-29T01:06:38;1.73;;;1.50;;
19812;SDS011;10066;48.108;11.448;2022-09-29T01:09:13;2.50;;;1.60;;
19812;SDS011;10066;48.108;11.448;2022-09-29T01:11:42;2.10;;;1.40;;
19812;SDS011;10066;48.108;11.448;2022-09-29T01:14:11;3.80;;;1.97;;
19812;SDS011;10066;48.108;11.448;2022-09-29T01:16:39;3.60;;;1.50;;
19812;SDS011;10066;48.108;11.448;2022-09-29T01:19:09;2.10;;;1.33;;
19812;SDS011;10066;48.108;11.448;2022-09-29T01:21:46;3.60;;;1.70;;
19812;SDS011;10066;48.108;11.448;2022-09-29T01:24:35;5.40;;;1.50;;
19812;SDS011;10066;48.108;11.448;2022-09-29T01:27:23;4.83;;;1.60;;
19812;SDS011;10066;48.108;11.448;2022-09-29T01:30:11;2.33;;;1.50;;
19812;SDS011;10066;48.108;11.448;2022-09-29T01:32:54;1.67;;;1.33;;
19812;SDS011;10066;48.108;11.448;2022-09-29T01:35:32;4.27;;;1.80;;
19812;SDS011;10066;48.108;11.448;2022-09-29T01:38:10;2.40;;;1.70;;
19812;SDS011;10066;48.108;11.448;2022-09-29T01:40:46;2.30;;;1.80;;
19812;SDS011;10066;48.108;11.448;2022-09-29T01:43:21;3.70;;;1.60;;
19812;SDS011;10066;48.108;11.448;2022-09-29T01:45:56;2.33;;;1.40;;
19812;SDS011;10066;48.108;11.448;2022-09-29T01:48:33;1.93;;;1.33;;
19812;SDS011;10066;48.108;11.448;2022-09-29T01:51:05;4.13;;;1.50;;
19812;SDS011;10066;48.108;11.448;2022-09-29T01:53:35;1.40;;;1.30;;
19812;SDS011;10066;48.108;11.448;2022-09-29T01:56:06;3.07;;;1.50;;
19812;SDS011;10066;48.108;11.448;2022-09-29T01:58:37;2.33;;;1.30;;
19812;SDS011;10066;48.108;11.448;2022-09-29T02:03:53;2.07;;;1.10;;
19812;SDS011;10066;48.108;11.448;2022-09-29T02:06:25;1.63;;;1.30;;
19812;SDS011;10066;48.108;11.448;2022-09-29T02:09:00;1.80;;;1.60;;
19812;SDS011;10066;48.108;11.448;2022-09-29T02:11:30;1.67;;;1.50;;
19812;SDS011;10066;48.108;11.448;2022-09-29T02:14:00;1.40;;;1.30;;
19812;SDS011;10066;48.108;11.448;2022-09-29T02:16:34;2.77;;;1.30;;
19812;SDS011;10066;48.108;11.448;2022-09-29T02:19:08;1.50;;;1.33;;
19812;SDS011;10066;48.108;11.448;2022-09-29T02:21:39;2.73;;;1.50;;
19812;SDS011;10066;48.108;11.448;2022-09-29T02:24:06;2.60;;;1.57;;
19812;SDS011;10066;48.108;11.448;2022-09-29T02:26:33;2.13;;;1.60;;
19812;SDS011;10066;48.108;11.448;2022-09-29T02:29:00;1.90;;;1.70;;
19812;SDS011;10066;48.108;11.448;2022-09-29T02:31:28;3.40;;;1.77;;
19812;SDS011;10066;48.108;11.448;2022-09-29T02:33:55;1.90;;;1.80;;
19812;SDS011;10066;48.108;11.448;2022-09-29T02:36:26;2.47;;;1.77;;
19812;SDS011;10066;48.108;11.448;2022-09-29T02:39:00;1.70;;;1.53;;
19812;SDS011;10066;48.108;11.448;2022-09-29T02:41:34;2.67;;;1.93;;
19812;SDS011;10066;48.108;11.448;2022-09-29T02:47:10;5.83;;;1.70;;
19812;SDS011;10066;48.108;11.448;2022-09-29T02:49:50;1.43;;;1.33;;
19812;SDS011;10066;48.108;11.448;2022-09-29T02:52:33;2.57;;;2.30;;
19812;SDS011;10066;48.108;11.448;2022-09-29T02:55:11;3.30;;;1.67;;
19812;SDS011;10066;48.108;11.448;2022-09-29T02:57:46;2.00;;;1.80;;
19812;SDS011;10066;48.108;11.448;2022-09-29T03:00:18;1.67;;;1.30;;
19812;SDS011;10066;48.108;11.448;2022-09-29T03:02:45;1.87;;;1.70;;
19812;SDS011;10066;48.108;11.448;2022-09-29T03:05:13;3.40;;;1.57;;
19812;SDS011;10066;48.108;11.448;2022-09-29T03:07:46;2.27;;;1.80;;
19812;SDS011;10066;48.108;11.448;2022-09-29T03:10:13;2.17;;;1.70;;
19812;SDS011;10066;48.108;11.448;2022-09-29T03:12:41;2.20;;;2.00;;
19812;SDS011;10066;48.108;11.448;2022-09-29T03:15:09;1.70;;;1.60;;
19812;SDS011;10066;48.108;11.448;2022-09-29T03:17:37;2.57;;;1.80;;
19812;SDS011;10066;48.108;11.448;2022-09-29T03:20:05;4.23;;;1.53;;
19812;SDS011;10066;48.108;11.448;2022-09-29T03:22:33;3.80;;;1.90;;
19812;SDS011;10066;48.108;11.448;2022-09-29T03:25:02;2.03;;;1.80;;
19812;SDS011;10066;48.108;11.448;2022-09-29T03:27:30;1.77;;;1.67;;
19812;SDS011;10066;48.108;11.448;2022-09-29T03:29:57;1.77;;;1.40;;
19812;SDS011;10066;48.108;11.448;2022-09-29T03:32:24;1.53;;;1.27;;
19812;SDS011;10066;48.108;11.448;2022-09-29T03:34:54;2.97;;;1.77;;
19812;SDS011;10066;48.108;11.448;2022-09-29T03:37:21;1.40;;;1.30;;
19812;SDS011;10066;48.108;11.448;2022-09-29T03:39:48;3.33;;;1.60;;
19812;SDS011;10066;48.108;11.448;2022-09-29T03:42:17;3.93;;;1.77;;
19812;SDS011;10066;48.108;11.448;2022-09-29T03:44:46;1.87;;;1.77;;
19812;SDS011;10066;48.108;11.448;2022-09-29T03:47:13;2.47;;;1.40;;
19812;SDS011;10066;48.108;11.448;2022-09-29T03:49:40;3.53;;;1.80;;
19812;SDS011;10066;48.108;11.448;2022-09-29T03:52:07;1.90;;;1.70;;
19812;SDS011;10066;48.108;11.448;2022-09-29T03:54:34;2.30;;;2.10;;
19812;SDS011;10066;48.108;11.448;2022-09-29T03:57:01;4.30;;;1.90;;
19812;SDS011;10066;48.108;11.448;2022-09-29T03:59:29;8.50;;;2.67;;
19812;SDS011;10066;48.108;11.448;2022-09-29T04:01:56;2.13;;;1.77;;
19812;SDS011;10066;48.108;11.448;2022-09-29T04:04:23;1.80;;;1.70;;
19812;SDS011;10066;48.108;11.448;2022-09-29T04:06:50;2.63;;;2.23;;
19812;SDS011;10066;48.108;11.448;2022-09-29T04:09:17;2.70;;;1.83;;
19812;SDS011;10066;48.108;11.448;2022-09-29T04:11:44;2.13;;;1.93;;
19812;SDS011;10066;48.108;11.448;2022-09-29T04:14:11;2.33;;;2.13;;
19812;SDS011;10066;48.108;11.448;2022-09-29T04:16:39;1.90;;;1.80;;
19812;SDS011;10066;48.108;11.448;2022-09-29T04:19:06;1.80;;;1.70;;
19812;SDS011;10066;48.108;11.448;2022-09-29T04:21:33;4.77;;;1.83;;
19812;SDS011;10066;48.108;11.448;2022-09-29T04:24:00;2.13;;;1.80;;
19812;SDS011;10066;48.108;11.448;2022-09-29T04:26:27;3.80;;;2.37;;
19812;SDS011;10066;48.108;11.448;2022-09-29T04:29:02;1.97;;;1.80;;
19812;SDS011;10066;48.108;11.448;2022-09-29T04:31:29;2.10;;;1.90;;
19812;SDS011;10066;48.108;11.448;2022-09-29T04:33:57;3.63;;;1.70;;
19812;SDS011;10066;48.108;11.448;2022-09-29T04:36:24;5.27;;;1.70;;
19812;SDS011;10066;48.108;11.448;2022-09-29T04:38:51;3.10;;;1.90;;
19812;SDS011;10066;48.108;11.448;2022-09-29T04:41:18;2.97;;;1.97;;
19812;SDS011;10066;48.108;11.448;2022-09-29T04:43:45;2.00;;;1.57;;
19812;SDS011;10066;48.108;11.448;2022-09-29T04:46:12;2.53;;;1.80;;
19812;SDS011;10066;48.108;11.448;2022-09-29T04:48:40;2.20;;;2.00;;
19812;SDS011;10066;48.108;11.448;2022-09-29T04:51:09;1.60;;;1.50;;
19812;SDS011;10066;48.108;11.448;2022-09-29T04:53:36;3.13;;;1.73;;
19812;SDS011;10066;48.108;11.448;2022-09-29T04:56:06;2.27;;;1.87;;
19812;SDS011;10066;48.108;11.448;2022-09-29T04:58:34;3.90;;;2.40;;
19812;SDS011;10066;48.108;11.448;2022-09-29T05:01:07;9.93;;;3.70;;
19812;SDS011;10066;48.108;11.448;2022-09-29T05:03:37;2.27;;;1.93;;
19812;SDS011;10066;48.108;11.448;2022-09-29T05:06:05;2.47;;;2.03;;
19812;SDS011;10066;48.108;11.448;2022-09-29T05:08:34;3.20;;;2.20;;
19812;SDS011;10066;48.108;11.448;2022-09-29T05:11:02;2.80;;;2.43;;
19812;SDS011;10066;48.108;11.448;2022-09-29T05:13:30;3.83;;;2.07;;
19812;SDS011;10066;48.108;11.448;2022-09-29T05:15:58;3.53;;;2.60;;
19812;SDS011;10066;48.108;11.448;2022-09-29T05:18:25;3.93;;;2.00;;
19812;SDS011;10066;48.108;11.448;2022-09-29T05:20:54;2.70;;;2.20;;
19812;SDS011;10066;48.108;11.448;2022-09-29T05:23:22;2.43;;;2.10;;
19812;SDS011;10066;48.108;11.448;2022-09-29T05:25:51;3.33;;;2.50;;
19812;SDS011;10066;48.108;11.448;2022-09-29T05:28:18;4.10;;;2.00;;
19812;SDS011;10066;48.108;11.448;2022-09-29T05:30:45;4.03;;;2.00;;
19812;SDS011;10066;48.108;11.448;2022-09-29T05:33:12;2.40;;;2.20;;
19812;SDS011;10066;48.108;11.448;2022-09-29T05:35:40;1.83;;;1.73;;
19812;SDS011;10066;48.108;11.448;2022-09-29T05:38:07;2.00;;;1.80;;
19812;SDS011;10066;48.108;11.448;2022-09-29T05:40:34;3.43;;;2.20;;
19812;SDS011;10066;48.108;11.448;2022-09-29T05:43:03;2.30;;;2.10;;
19812;SDS011;10066;48.108;11.448;2022-09-29T05:45:30;2.70;;;2.43;;
19812;SDS011;10066;48.108;11.448;2022-09-29T05:47:57;3.17;;;2.40;;
19812;SDS011;10066;48.108;11.448;2022-09-29T05:50:24;3.80;;;2.50;;
19812;SDS011;10066;48.108;11.448;2022-09-29T05:52:51;3.00;;;2.70;;
19812;SDS011;10066;48.108;11.448;2022-09-29T05:55:18;6.80;;;3.00;;
19812;SDS011;10066;48.108;11.448;2022-09-29T05:57:46;3.37;;;2.70;;
19812;SDS011;10066;48.108;11.448;2022-09-29T06:00:16;2.80;;;2.30;;
19812;SDS011;10066;48.108;11.448;2022-09-29T06:02:43;4.10;;;2.57;;
19812;SDS011;10066;48.108;11.448;2022-09-29T06:05:10;3.20;;;2.50;;
19812;SDS011;10066;48.108;11.448;2022-09-29T06:07:36;2.63;;;2.33;;
19812;SDS011;10066;48.108;11.448;2022-09-29T06:10:04;2.80;;;2.20;;
19812;SDS011;10066;48.108;11.448;2022-09-29T06:12:32;2.43;;;2.23;;
19812;SDS011;10066;48.108;11.448;2022-09-29T06:15:01;3.37;;;2.43;;
19812;SDS011;10066;48.108;11.448;2022-09-29T06:17:29;2.47;;;2.27;;
19812;SDS011;10066;48.108;11.448;2022-09-29T06:19:57;2.50;;;1.97;;
19812;SDS011;10066;48.108;11.448;2022-09-29T06:22:23;3.43;;;2.40;;
19812;SDS011;10066;48.108;11.448;2022-09-29T06:24:51;2.77;;;2.40;;
19812;SDS011;10066;48.108;11.448;2022-09-29T06:27:18;4.00;;;2.53;;
19812;SDS011;10066;48.108;11.448;2022-09-29T06:29:45;3.70;;;3.00;;
19812;SDS011;10066;48.108;11.448;2022-09-29T06:32:12;4.00;;;2.83;;
19812;SDS011;10066;48.108;11.448;2022-09-29T06:34:44;3.97;;;2.80;;
19812;SDS011;10066;48.108;11.448;2022-09-29T06:37:28;4.93;;;3.07;;
19812;SDS011;10066;48.108;11.448;2022-09-29T06:40:01;7.60;;;2.90;;
19812;SDS011;10066;48.108;11.448;2022-09-29T06:42:28;4.47;;;3.37;;
19812;SDS011;10066;48.108;11.448;2022-09-29T06:44:55;8.67;;;3.23;;
19812;SDS011;10066;48.108;11.448;2022-09-29T06:47:22;3.50;;;3.20;;
19812;SDS011;10066;48.108;11.448;2022-09-29T06:49:51;11.73;;;3.30;;
19812;SDS011;10066;48.108;11.448;2022-09-29T06:52:17;5.27;;;3.10;;
19812;SDS011;10066;48.108;11.448;2022-09-29T06:54:44;4.43;;;2.70;;
19812;SDS011;10066;48.108;11.448;2022-09-29T06:57:11;8.43;;;3.27;;
19812;SDS011;10066;48.108;11.448;2022-09-29T06:59:38;4.63;;;3.10;;
19812;SDS011;10066;48.108;11.448;2022-09-29T07:02:07;4.90;;;3.13;;
19812;SDS011;10066;48.108;11.448;2022-09-29T07:04:35;5.73;;;3.40;;
19812;SDS011;10066;48.108;11.448;2022-09-29T07:07:03;6.80;;;3.50;;
19812;SDS011;10066;48.108;11.448;2022-09-29T07:09:30;3.83;;;2.57;;
19812;SDS011;10066;48.108;11.448;2022-09-29T07:11:57;6.87;;;2.60;;
19812;SDS011;10066;48.108;11.448;2022-09-29T07:14:23;5.63;;;2.90;;
19812;SDS011;10066;48.108;11.448;2022-09-29T07:16:50;7.80;;;3.07;;
19812;SDS011;10066;48.108;11.448;2022-09-29T07:19:18;6.40;;;3.33;;
19812;SDS011;10066;48.108;11.448;2022-09-29T07:21:46;4.93;;;2.80;;
19812;SDS011;10066;48.108;11.448;2022-09-29T07:24:15;3.43;;;2.47;;
19812;SDS011;10066;48.108;11.448;2022-09-29T07:26:42;4.43;;;2.40;;
19812;SDS011;10066;48.108;11.448;2022-09-29T07:29:09;3.80;;;2.40;;
19812;SDS011;10066;48.108;11.448;2022-09-29T07:31:36;3.17;;;2.20;;
19812;SDS011;10066;48.108;11.448;2022-09-29T07:34:04;3.77;;;1.80;;
19812;SDS011;10066;48.108;11.448;2022-09-29T07:36:31;2.37;;;1.60;;
19812;SDS011;10066;48.108;11.448;2022-09-29T07:38:58;2.20;;;1.43;;
19812;SDS011;10066;48.108;11.448;2022-09-29T07:41:26;1.73;;;1.23;;
19812;SDS011;10066;48.108;11.448;2022-09-29T07:43:53;2.90;;;1.40;;
19812;SDS011;10066;48.108;11.448;2022-09-29T07:46:20;2.10;;;1.43;;
19812;SDS011;10066;48.108;11.448;2022-09-29T07:48:47;1.83;;;1.20;;
19812;SDS011;10066;48.108;11.448;2022-09-29T07:51:14;1.63;;;1.47;;
19812;SDS011;10066;48.108;11.448;2022-09-29T07:53:43;1.80;;;1.37;;
19812;SDS011;10066;48.108;11.448;2022-09-29T07:56:10;1.40;;;1.10;;
19812;SDS011;10066;48.108;11.448;2022-09-29T07:58:40;1.40;;;1.20;;
19812;SDS011;10066;48.108;11.448;2022-09-29T08:01:08;3.53;;;1.50;;
19812;SDS011;10066;48.108;11.448;2022-09-29T08:03:38;1.13;;;1.03;;
19812;SDS011;10066;48.108;11.448;2022-09-29T08:06:06;1.23;;;1.10;;
19812;SDS011;10066;48.108;11.448;2022-09-29T08:08:34;1.40;;;1.13;;
19812;SDS011;10066;48.108;11.448;2022-09-29T08:11:02;1.63;;;1.10;;
19812;SDS011;10066;48.108;11.448;2022-09-29T08:13:30;2.47;;;1.27;;
19812;SDS011;10066;48.108;11.448;2022-09-29T08:16:00;1.40;;;1.00;;
19812;SDS011;10066;48.108;11.448;2022-09-29T08:18:28;2.03;;;1.07;;
19812;SDS011;10066;48.108;11.448;2022-09-29T08:20:55;1.10;;;1.00;;
19812;SDS011;10066;48.108;11.448;2022-09-29T08:23:23;0.90;;;0.80;;
19812;SDS011;10066;48.108;11.448;2022-09-29T08:25:57;1.63;;;1.00;;
19812;SDS011;10066;48.108;11.448;2022-09-29T08:28:25;2.77;;;1.07;;
19812;SDS011;10066;48.108;11.448;2022-09-29T08:30:52;1.33;;;0.70;;
19812;SDS011;10066;48.108;11.448;2022-09-29T08:33:20;1.50;;;0.80;;
19812;SDS011;10066;48.108;11.448;2022-09-29T08:35:53;2.33;;;1.20;;
19812;SDS011;10066;48.108;11.448;2022-09-29T08:38:21;0.70;;;0.70;;
19812;SDS011;10066;48.108;11.448;2022-09-29T08:40:48;1.00;;;0.60;;
19812;SDS011;10066;48.108;11.448;2022-09-29T08:43:16;1.30;;;0.70;;
19812;SDS011;10066;48.108;11.448;2022-09-29T08:45:53;0.80;;;0.53;;
19812;SDS011;10066;48.108;11.448;2022-09-29T08:48:26;1.17;;;0.50;;
19812;SDS011;10066;48.108;11.448;2022-09-29T08:50:58;1.17;;;0.50;;
19812;SDS011;10066;48.108;11.448;2022-09-29T08:53:28;0.87;;;0.50;;
19812;SDS011;10066;48.108;11.448;2022-09-29T08:55:59;0.93;;;0.50;;
19812;SDS011;10066;48.108;11.448;2022-09-29T08:58:29;1.20;;;0.60;;
19812;SDS011;10066;48.108;11.448;2022-09-29T09:01:01;0.90;;;0.50;;
19812;SDS011;10066;48.108;11.448;2022-09-29T09:06:31;0.63;;;0.50;;
19812;SDS011;10066;48.108;11.448;2022-09-29T09:09:08;0.57;;;0.47;;
19812;SDS011;10066;48.108;11.448;2022-09-29T09:11:52;2.30;;;0.50;;
19812;SDS011;10066;48.108;11.448;2022-09-29T09:14:30;0.60;;;0.47;;
19812;SDS011;10066;48.108;11.448;2022-09-29T09:17:19;1.10;;;0.67;;
19812;SDS011;10066;48.108;11.448;2022-09-29T09:19:59;1.17;;;0.60;;
19812;SDS011;10066;48.108;11.448;2022-09-29T09:22:37;0.60;;;0.50;;
19812;SDS011;10066;48.108;11.448;2022-09-29T09:25:18;1.23;;;0.60;;
19812;SDS011;10066;48.108;11.448;2022-09-29T09:27:55;1.00;;;0.53;;
19812;SDS011;10066;48.108;11.448;2022-09-29T09:30:30;1.00;;;0.70;;
19812;SDS011;10066;48.108;11.448;2022-09-29T09:33:05;0.80;;;0.60;;
19812;SDS011;10066;48.108;11.448;2022-09-29T09:35:40;1.37;;;0.80;;
19812;SDS011;10066;48.108;11.448;2022-09-29T09:38:12;1.03;;;0.70;;
19812;SDS011;10066;48.108;11.448;2022-09-29T09:40:44;2.10;;;0.57;;
19812;SDS011;10066;48.108;11.448;2022-09-29T09:43:15;0.70;;;0.40;;
19812;SDS011;10066;48.108;11.448;2022-09-29T09:45:46;1.00;;;0.50;;
19812;SDS011;10066;48.108;11.448;2022-09-29T09:48:18;0.90;;;0.50;;
19812;SDS011;10066;48.108;11.448;2022-09-29T09:50:51;1.53;;;0.70;;
19812;SDS011;10066;48.108;11.448;2022-09-29T09:53:19;0.30;;;0.30;;
19812;SDS011;10066;48.108;11.448;2022-09-29T09:55:57;1.00;;;0.50;;
19812;SDS011;10066;48.108;11.448;2022-09-29T09:58:42;0.83;;;0.50;;
19812;SDS011;10066;48.108;11.448;2022-09-29T10:01:25;3.33;;;0.80;;
19812;SDS011;10066;48.108;11.448;2022-09-29T10:03:52;1.83;;;0.60;;
19812;SDS011;10066;48.108;11.448;2022-09-29T10:06:22;0.93;;;0.53;;
19812;SDS011;10066;48.108;11.448;2022-09-29T10:08:49;1.00;;;0.50;;
19812;SDS011;10066;48.108;11.448;2022-09-29T10:11:23;2.73;;;0.50;;
19812;SDS011;10066;48.108;11.448;2022-09-29T10:13:55;1.37;;;0.73;;
19812;SDS011;10066;48.108;11.448;2022-09-29T10:16:27;1.13;;;0.50;;
19812;SDS011;10066;48.108;11.448;2022-09-29T10:18:59;0.90;;;0.40;;
19812;SDS011;10066;48.108;11.448;2022-09-29T10:21:35;1.03;;;0.50;;
19812;SDS011;10066;48.108;11.448;2022-09-29T10:24:04;0.70;;;0.30;;
19812;SDS011;10066;48.108;11.448;2022-09-29T10:26:45;2.83;;;0.67;;
19812;SDS011;10066;48.108;11.448;2022-09-29T10:29:20;0.60;;;0.40;;
19812;SDS011;10066;48.108;11.448;2022-09-29T10:32:00;1.13;;;0.60;;
19812;SDS011;10066;48.108;11.448;2022-09-29T10:34:31;0.87;;;0.60;;
19812;SDS011;10066;48.108;11.448;2022-09-29T10:37:01;0.83;;;0.57;;
19812;SDS011;10066;48.108;11.448;2022-09-29T10:39:37;2.10;;;0.73;;
19812;SDS011;10066;48.108;11.448;2022-09-29T10:42:18;0.43;;;0.43;;
19812;SDS011;10066;48.108;11.448;2022-09-29T10:44:52;0.90;;;0.60;;
19812;SDS011;10066;48.108;11.448;2022-09-29T10:47:20;1.00;;;0.60;;
19812;SDS011;10066;48.108;11.448;2022-09-29T10:49:58;0.67;;;0.60;;
19812;SDS011;10066;48.108;11.448;2022-09-29T10:52:35;2.67;;;0.57;;
19812;SDS011;10066;48.108;11.448;2022-09-29T10:55:03;1.67;;;0.50;;
19812;SDS011;10066;48.108;11.448;2022-09-29T10:57:31;1.20;;;0.70;;
19812;SDS011;10066;48.108;11.448;2022-09-29T11:00:01;1.90;;;0.67;;
19812;SDS011;10066;48.108;11.448;2022-09-29T11:02:31;1.73;;;0.60;;
19812;SDS011;10066;48.108;11.448;2022-09-29T11:05:01;1.60;;;0.70;;
19812;SDS011;10066;48.108;11.448;2022-09-29T11:07:30;0.77;;;0.70;;
19812;SDS011;10066;48.108;11.448;2022-09-29T11:10:00;1.33;;;0.80;;
19812;SDS011;10066;48.108;11.448;2022-09-29T11:12:28;0.60;;;0.57;;
19812;SDS011;10066;48.108;11.448;2022-09-29T11:15:20;0.80;;;0.60;;
19812;SDS011;10066;48.108;11.448;2022-09-29T11:17:49;1.10;;;0.80;;
19812;SDS011;10066;48.108;11.448;2022-09-29T11:20:20;0.80;;;0.60;;
19812;SDS011;10066;48.108;11.448;2022-09-29T11:28:52;0.93;;;0.60;;
19812;SDS011;10066;48.108;11.448;2022-09-29T11:31:56;1.30;;;0.50;;
19812;SDS011;10066;48.108;11.448;2022-09-29T11:34:40;1.47;;;0.57;;
19812;SDS011;10066;48.108;11.448;2022-09-29T11:37:39;1.20;;;0.57;;
19812;SDS011;10066;48.108;11.448;2022-09-29T11:40:19;1.77;;;0.70;;
19812;SDS011;10066;48.108;11.448;2022-09-29T11:42:57;1.13;;;0.53;;
19812;SDS011;10066;48.108;11.448;2022-09-29T11:45:35;1.30;;;0.70;;
19812;SDS011;10066;48.108;11.448;2022-09-29T11:48:18;0.90;;;0.50;;
19812;SDS011;10066;48.108;11.448;2022-09-29T11:51:05;1.00;;;0.60;;
19812;SDS011;10066;48.108;11.448;2022-09-29T11:53:48;1.43;;;0.70;;
19812;SDS011;10066;48.108;11.448;2022-09-29T11:56:32;1.23;;;0.50;;
19812;SDS011;10066;48.108;11.448;2022-09-29T11:59:15;0.93;;;0.60;;
19812;SDS011;10066;48.108;11.448;2022-09-29T12:01:55;1.23;;;0.60;;
19812;SDS011;10066;48.108;11.448;2022-09-29T12:04:37;2.03;;;0.60;;
19812;SDS011;10066;48.108;11.448;2022-09-29T12:07:14;1.27;;;0.70;;
19812;SDS011;10066;48.108;11.448;2022-09-29T12:10:00;0.70;;;0.60;;
19812;SDS011;10066;48.108;11.448;2022-09-29T12:12:40;1.30;;;0.90;;
19812;SDS011;10066;48.108;11.448;2022-09-29T12:15:23;1.57;;;0.77;;
19812;SDS011;10066;48.108;11.448;2022-09-29T12:17:58;2.17;;;1.00;;
19812;SDS011;10066;48.108;11.448;2022-09-29T12:20:29;1.60;;;0.87;;
19812;SDS011;10066;48.108;11.448;2022-09-29T12:23:01;1.10;;;0.73;;
19812;SDS011;10066;48.108;11.448;2022-09-29T12:25:33;1.27;;;0.80;;
19812;SDS011;10066;48.108;11.448;2022-09-29T12:28:03;3.03;;;0.90;;
19812;SDS011;10066;48.108;11.448;2022-09-29T12:30:40;0.93;;;0.80;;
19812;SDS011;10066;48.108;11.448;2022-09-29T12:33:13;0.60;;;0.60;;
19812;SDS011;10066;48.108;11.448;2022-09-29T12:35:46;1.93;;;0.70;;
19812;SDS011;10066;48.108;11.448;2022-09-29T12:38:27;1.23;;;0.70;;
19812;SDS011;10066;48.108;11.448;2022-09-29T12:41:03;1.57;;;0.80;;
19812;SDS011;10066;48.108;11.448;2022-09-29T12:43:38;2.53;;;0.80;;
19812;SDS011;10066;48.108;11.448;2022-09-29T12:46:14;1.73;;;0.90;;
19812;SDS011;10066;48.108;11.448;2022-09-29T12:48:50;1.60;;;0.90;;
19812;SDS011;10066;48.108;11.448;2022-09-29T12:51:25;1.90;;;0.90;;
19812;SDS011;10066;48.108;11.448;2022-09-29T12:54:03;2.50;;;0.90;;
19812;SDS011;10066;48.108;11.448;2022-09-29T12:56:36;2.77;;;1.70;;
19812;SDS011;10066;48.108;11.448;2022-09-29T12:59:06;1.93;;;1.70;;
19812;SDS011;10066;48.108;11.448;2022-09-29T13:01:43;2.00;;;1.80;;
19812;SDS011;10066;48.108;11.448;2022-09-29T13:07:20;3.23;;;2.07;;
19812;SDS011;10066;48.108;11.448;2022-09-29T13:16:20;2.70;;;2.30;;
19812;SDS011;10066;48.108;11.448;2022-09-29T13:22:22;5.23;;;2.50;;
19812;SDS011;10066;48.108;11.448;2022-09-29T13:25:03;3.70;;;2.07;;
19812;SDS011;10066;48.108;11.448;2022-09-29T13:27:39;3.33;;;2.07;;
19812;SDS011;10066;48.108;11.448;2022-09-29T13:30:11;3.30;;;2.27;;
19812;SDS011;10066;48.108;11.448;2022-09-29T13:32:41;2.63;;;2.20;;
19812;SDS011;10066;48.108;11.448;2022-09-29T13:35:13;2.53;;;2.33;;
19812;SDS011;10066;48.108;11.448;2022-09-29T13:37:45;3.33;;;2.57;;
19812;SDS011;10066;48.108;11.448;2022-09-29T13:40:16;3.43;;;2.60;;
19812;SDS011;10066;48.108;11.448;2022-09-29T13:42:47;3.70;;;2.70;;
19812;SDS011;10066;48.108;11.448;2022-09-29T13:51:39;5.23;;;2.27;;
19812;SDS011;10066;48.108;11.448;2022-09-29T13:54:21;3.43;;;2.63;;
19812;SDS011;10066;48.108;11.448;2022-09-29T13:57:06;3.50;;;2.73;;
19812;SDS011;10066;48.108;11.448;2022-09-29T14:02:59;3.13;;;2.63;;
19812;SDS011;10066;48.108;11.448;2022-09-29T14:05:46;4.27;;;2.70;;
19812;SDS011;10066;48.108;11.448;2022-09-29T14:08:37;3.13;;;2.80;;
19812;SDS011;10066;48.108;11.448;2022-09-29T14:11:16;3.77;;;2.60;;
19812;SDS011;10066;48.108;11.448;2022-09-29T14:13:48;4.13;;;2.73;;
19812;SDS011;10066;48.108;11.448;2022-09-29T14:16:35;4.50;;;2.70;;
19812;SDS011;10066;48.108;11.448;2022-09-29T14:19:21;3.43;;;3.13;;
19812;SDS011;10066;48.108;11.448;2022-09-29T14:22:00;3.03;;;2.60;;
19812;SDS011;10066;48.108;11.448;2022-09-29T14:25:20;3.53;;;2.50;;
19812;SDS011;10066;48.108;11.448;2022-09-29T14:28:10;3.03;;;2.40;;
19812;SDS011;10066;48.108;11.448;2022-09-29T14:30:41;3.70;;;3.17;;
19812;SDS011;10066;48.108;11.448;2022-09-29T14:33:11;4.03;;;3.30;;
19812;SDS011;10066;48.108;11.448;2022-09-29T14:35:41;3.90;;;3.23;;
19812;SDS011;10066;48.108;11.448;2022-09-29T14:38:12;9.13;;;4.00;;
19812;SDS011;10066;48.108;11.448;2022-09-29T14:40:54;5.10;;;4.20;;
19812;SDS011;10066;48.108;11.448;2022-09-29T14:43:23;6.73;;;4.53;;
19812;SDS011;10066;48.108;11.448;2022-09-29T14:45:58;4.70;;;4.23;;
19812;SDS011;10066;48.108;11.448;2022-09-29T14:49:08;4.73;;;4.27;;
19812;SDS011;10066;48.108;11.448;2022-09-29T14:52:08;6.60;;;4.30;;
19812;SDS011;10066;48.108;11.448;2022-09-29T14:54:47;5.40;;;4.20;;
19812;SDS011;10066;48.108;11.448;2022-09-29T14:57:45;6.67;;;4.90;;
19812;SDS011;10066;48.108;11.448;2022-09-29T15:00:23;7.57;;;4.37;;
19812;SDS011;10066;48.108;11.448;2022-09-29T15:03:00;6.47;;;4.80;;
19812;SDS011;10066;48.108;11.448;2022-09-29T15:05:28;7.30;;;4.67;;
19812;SDS011;10066;48.108;11.448;2022-09-29T15:07:57;8.53;;;4.57;;
19812;SDS011;10066;48.108;11.448;2022-09-29T15:10:27;5.43;;;4.43;;
19812;SDS011;10066;48.108;11.448;2022-09-29T15:15:45;7.47;;;4.57;;
19812;SDS011;10066;48.108;11.448;2022-09-29T15:18:23;6.20;;;4.50;;
19812;SDS011;10066;48.108;11.448;2022-09-29T15:21:03;6.13;;;4.50;;
19812;SDS011;10066;48.108;11.448;2022-09-29T15:23:44;6.03;;;4.47;;
19812;SDS011;10066;48.108;11.448;2022-09-29T15:26:30;5.87;;;4.40;;
19812;SDS011;10066;48.108;11.448;2022-09-29T15:29:00;4.67;;;4.17;;
19812;SDS011;10066;48.108;11.448;2022-09-29T15:31:31;6.03;;;4.47;;
19812;SDS011;10066;48.108;11.448;2022-09-29T15:34:01;4.97;;;4.47;;
19812;SDS011;10066;48.108;11.448;2022-09-29T15:36:30;5.10;;;4.47;;
19812;SDS011;10066;48.108;11.448;2022-09-29T15:39:01;4.80;;;4.07;;
19812;SDS011;10066;48.108;11.448;2022-09-29T15:41:32;4.83;;;4.20;;
19812;SDS011;10066;48.108;11.448;2022-09-29T15:44:02;4.47;;;3.73;;